createdAt,value
2023-04-06T00:02:42.432Z,99868.56
2023-04-06T00:05:26.516Z,99865.44
2023-04-06T00:08:11.839Z,99835.97
2023-04-06T00:10:55.684Z,99863.72
2023-04-06T00:13:40.088Z,99864.50
2023-04-06T00:16:25.132Z,99852.88
2023-04-06T00:19:09.570Z,99849.31
2023-04-06T00:21:53.751Z,99847.78
2023-04-06T00:24:39.113Z,99842.00
2023-04-06T00:27:23.073Z,99856.34
2023-04-06T00:30:08.457Z,99812.72
2023-04-06T00:32:52.605Z,99858.75
2023-04-06T00:35:37.309Z,99843.53
2023-04-06T00:38:21.801Z,99834.03
2023-04-06T00:41:07.307Z,99843.72
2023-04-06T00:43:51.302Z,99837.81
2023-04-06T00:46:35.277Z,99805.44
2023-04-06T00:49:19.359Z,99841.31
2023-04-06T00:52:03.921Z,99827.53
2023-04-06T00:54:47.911Z,99832.88
2023-04-06T00:57:34.298Z,99833.13
2023-04-06T01:00:19.371Z,99802.06
2023-04-06T01:03:07.947Z,99823.66
2023-04-06T01:05:59.412Z,99805.94
2023-04-06T01:08:51.068Z,99823.56
2023-04-06T01:11:38.283Z,99814.41
2023-04-06T01:14:27.754Z,99779.44
2023-04-06T01:17:16.625Z,99809.50
2023-04-06T01:20:01.175Z,99811.09
2023-04-06T01:22:49.937Z,99812.44
2023-04-06T01:25:34.628Z,99806.38
2023-04-06T01:28:23.589Z,99791.94
2023-04-06T01:31:33.749Z,99791.38
2023-04-06T01:34:17.994Z,99785.03
2023-04-06T01:37:02.911Z,99780.41
2023-04-06T01:39:49.855Z,99762.63
2023-04-06T01:42:43.480Z,99775.53
2023-04-06T01:45:30.191Z,99780.19
2023-04-06T01:48:21.307Z,99776.44
2023-04-06T01:51:06.220Z,99773.03
2023-04-06T01:53:54.110Z,99775.91
2023-04-06T01:56:44.057Z,99780.06
2023-04-06T01:59:42.442Z,99776.50
2023-04-06T02:02:48.308Z,99778.31
2023-04-06T02:05:39.228Z,99772.78
2023-04-06T02:08:35.016Z,99774.97
2023-04-06T02:11:19.031Z,99773.94
2023-04-06T02:14:08.326Z,99772.66
2023-04-06T02:16:58.399Z,99770.44
2023-04-06T02:19:42.559Z,99723.69
2023-04-06T02:22:26.456Z,99775.69
2023-04-06T02:25:10.910Z,99768.75
2023-04-06T02:27:56.410Z,99773.09
2023-04-06T02:30:41.880Z,99725.63
2023-04-06T02:33:25.692Z,99766.28
2023-04-06T02:36:10.384Z,99766.69
2023-04-06T02:38:54.423Z,99772.16
2023-04-06T02:41:44.020Z,99753.44
2023-04-06T02:44:30.589Z,99766.47
2023-04-06T02:47:16.114Z,99762.06
2023-04-06T02:50:05.773Z,99759.34
2023-04-06T02:52:54.756Z,99749.56
2023-04-06T02:55:39.112Z,99767.50
2023-04-06T02:58:23.079Z,99769.81
2023-04-06T03:01:11.200Z,99771.84
2023-04-06T03:03:58.211Z,99767.03
2023-04-06T03:06:44.297Z,99763.63
2023-04-06T03:09:39.793Z,99774.28
2023-04-06T03:12:23.740Z,99761.69
2023-04-06T03:15:42.687Z,99779.13
2023-04-06T03:18:33.688Z,99773.69
2023-04-06T03:21:20.356Z,99765.22
2023-04-06T03:24:07.571Z,99778.78
2023-04-06T03:26:51.444Z,99779.47
2023-04-06T03:29:36.790Z,99770.13
2023-04-06T03:32:22.983Z,99779.72
2023-04-06T03:35:07.575Z,99776.28
2023-04-06T03:37:52.916Z,99767.19
2023-04-06T03:40:37.473Z,99777.31
2023-04-06T03:43:21.310Z,99751.00
2023-04-06T03:46:05.355Z,99781.84
2023-04-06T03:48:51.182Z,99726.34
2023-04-06T03:51:37.471Z,99791.97
2023-04-06T03:54:22.739Z,99783.44
2023-04-06T03:57:06.693Z,99786.47
2023-04-06T03:59:50.577Z,99789.38
2023-04-06T04:02:34.829Z,99776.59
2023-04-06T04:05:18.942Z,99785.50
2023-04-06T04:08:02.920Z,99790.75
2023-04-06T04:10:48.329Z,99795.31
2023-04-06T04:13:32.231Z,99797.31
2023-04-06T04:16:16.883Z,99796.00
2023-04-06T04:19:01.093Z,99797.66
2023-04-06T04:21:46.574Z,99799.09
2023-04-06T04:24:34.795Z,99793.44
2023-04-06T04:27:21.686Z,99796.31
2023-04-06T04:30:08.888Z,99792.38
2023-04-06T04:32:52.935Z,99791.31
2023-04-06T04:35:39.864Z,99795.41
2023-04-06T04:38:25.057Z,99608.03
2023-04-06T04:41:11.687Z,99788.31
2023-04-06T04:44:00.170Z,99802.09
2023-04-06T04:46:44.830Z,99762.72
2023-04-06T04:49:31.446Z,99794.22
2023-04-06T04:52:15.643Z,99790.19
2023-04-06T04:55:18.588Z,99796.41
2023-04-06T04:58:05.578Z,99798.72
2023-04-06T05:01:11.212Z,99799.38
2023-04-06T05:03:57.013Z,99796.63
2023-04-06T05:06:40.868Z,99804.66
2023-04-06T05:09:25.507Z,99802.94
2023-04-06T05:12:09.748Z,99799.44
2023-04-06T05:15:02.187Z,99790.97
2023-04-06T05:17:48.978Z,99786.03
2023-04-06T05:20:38.503Z,99782.63
2023-04-06T05:23:22.321Z,99793.78
2023-04-06T05:26:08.016Z,99789.84
2023-04-06T05:28:51.974Z,99786.28
2023-04-06T05:31:36.404Z,99783.66
2023-04-06T05:34:21.788Z,99780.72
2023-04-06T05:37:07.760Z,99786.84
2023-04-06T05:39:53.237Z,99784.00
2023-04-06T05:42:39.491Z,99782.81
2023-04-06T05:45:23.910Z,99783.50
2023-04-06T05:48:12.784Z,99739.66
2023-04-06T05:50:58.185Z,99775.75
2023-04-06T05:53:50.135Z,99770.06
2023-04-06T05:56:33.984Z,99769.69
2023-04-06T05:59:19.615Z,99770.69
2023-04-06T06:02:03.688Z,99767.28
2023-04-06T06:04:50.991Z,99769.69
2023-04-06T06:07:37.404Z,99741.31
2023-04-06T06:10:21.553Z,99758.06
2023-04-06T06:13:05.397Z,99761.88
2023-04-06T06:15:50.937Z,99759.38
2023-04-06T06:18:37.814Z,99751.22
2023-04-06T06:21:22.278Z,99757.59
2023-04-06T06:24:09.135Z,99753.78
2023-04-06T06:26:53.214Z,99739.25
2023-04-06T06:29:40.125Z,99755.31
2023-04-06T06:32:24.098Z,99751.56
2023-04-06T06:35:10.903Z,99744.41
2023-04-06T06:37:55.827Z,99754.91
2023-04-06T06:40:44.651Z,99767.13
2023-04-06T06:43:28.680Z,99759.50
2023-04-06T06:46:17.230Z,99737.34
2023-04-06T06:49:01.573Z,99745.50
2023-04-06T06:51:45.474Z,99703.94
2023-04-06T06:54:29.450Z,99749.22
2023-04-06T06:57:15.081Z,99750.34
2023-04-06T07:00:01.036Z,99755.09
2023-04-06T07:02:47.241Z,99741.59
2023-04-06T07:05:31.406Z,99747.97
2023-04-06T07:08:16.192Z,99752.81
2023-04-06T07:11:00.114Z,99750.91
2023-04-06T07:13:45.644Z,99706.25
2023-04-06T07:16:32.758Z,99745.84
2023-04-06T07:19:16.735Z,99743.66
2023-04-06T07:22:01.970Z,99750.81
2023-04-06T07:24:46.067Z,99747.13
2023-04-06T07:27:31.618Z,99738.56
2023-04-06T07:30:17.725Z,99748.34
2023-04-06T07:33:02.021Z,99737.81
2023-04-06T07:35:46.520Z,99739.69
2023-04-06T07:38:31.088Z,99736.69
2023-04-06T07:41:15.036Z,99709.59
2023-04-06T07:43:59.054Z,99738.03
2023-04-06T07:46:44.503Z,99755.78
2023-04-06T07:49:28.477Z,99746.09
2023-04-06T07:52:13.003Z,99749.00
2023-04-06T07:54:57.952Z,99742.03
2023-04-06T07:57:41.779Z,99741.56
2023-04-06T08:00:26.016Z,99738.59
2023-04-06T08:03:11.626Z,99742.03
2023-04-06T08:05:56.402Z,99710.06
2023-04-06T08:08:40.464Z,99756.50
2023-04-06T08:11:24.427Z,99753.72
2023-04-06T08:14:08.398Z,99739.25
2023-04-06T08:16:52.416Z,99741.53
2023-04-06T08:19:38.518Z,99741.91
2023-04-06T08:22:22.455Z,99738.69
2023-04-06T08:25:06.986Z,99730.25
2023-04-06T08:27:50.986Z,99727.94
2023-04-06T08:30:34.919Z,99729.00
2023-04-06T08:33:18.900Z,99744.63
2023-04-06T08:36:09.538Z,99737.19
2023-04-06T08:38:53.575Z,99740.44
2023-04-06T08:41:38.126Z,99739.81
2023-04-06T08:44:22.053Z,99724.56
2023-04-06T08:47:07.954Z,99687.16
2023-04-06T08:49:53.051Z,99729.94
2023-04-06T08:52:39.016Z,99737.00
2023-04-06T08:55:23.560Z,99727.72
2023-04-06T08:58:10.142Z,99689.63
2023-04-06T09:00:54.960Z,99726.16
2023-04-06T09:03:41.139Z,99727.88
2023-04-06T09:06:25.452Z,99719.84
2023-04-06T09:09:10.724Z,99741.41
2023-04-06T09:11:55.147Z,99727.91
2023-04-06T09:14:40.539Z,99727.34
2023-04-06T09:17:25.379Z,99742.34
2023-04-06T09:20:09.678Z,99741.53
2023-04-06T09:22:53.832Z,99717.34
2023-04-06T09:25:39.056Z,99742.00
2023-04-06T09:28:23.014Z,99737.97
2023-04-06T09:31:06.901Z,99738.16
2023-04-06T09:33:51.005Z,99734.19
2023-04-06T09:36:36.118Z,99708.50
2023-04-06T09:39:22.905Z,99690.03
2023-04-06T09:42:08.255Z,99731.03
2023-04-06T09:44:52.256Z,99730.84
2023-04-06T09:47:38.980Z,99742.09
2023-04-06T09:50:23.367Z,99725.34
2023-04-06T09:53:08.228Z,99730.19
2023-04-06T09:55:55.004Z,99742.53
2023-04-06T09:58:45.611Z,99734.00
2023-04-06T10:01:32.200Z,99738.50
2023-04-06T10:04:29.371Z,99702.56
2023-04-06T10:07:14.252Z,99741.06
2023-04-06T10:09:59.369Z,99725.94
2023-04-06T10:12:44.050Z,99730.13
2023-04-06T10:15:30.645Z,99716.22
2023-04-06T10:18:15.459Z,99723.66
2023-04-06T10:21:05.998Z,99726.00
2023-04-06T10:23:51.427Z,99698.53
2023-04-06T10:26:35.322Z,99730.97
2023-04-06T10:29:19.592Z,99737.22
2023-04-06T10:32:05.155Z,99736.00
2023-04-06T10:34:49.528Z,99738.19
2023-04-06T10:37:48.976Z,99732.06
2023-04-06T10:40:33.242Z,99728.75
2023-04-06T10:43:23.167Z,99692.25
2023-04-06T10:46:09.021Z,99704.19
2023-04-06T10:48:54.754Z,99711.53
2023-04-06T10:51:41.089Z,99722.69
2023-04-06T10:54:28.082Z,99729.28
2023-04-06T10:57:12.210Z,99700.22
2023-04-06T10:59:56.365Z,99721.34
2023-04-06T11:02:40.844Z,99701.56
2023-04-06T11:05:26.462Z,99678.06
2023-04-06T11:08:10.468Z,99722.91
2023-04-06T11:10:54.622Z,99724.72
2023-04-06T11:13:44.118Z,99712.44
2023-04-06T11:16:30.580Z,99718.47
2023-04-06T11:19:14.741Z,99720.47
2023-04-06T11:22:09.218Z,99727.56
2023-04-06T11:24:53.798Z,99712.50
2023-04-06T11:27:38.121Z,99705.63
2023-04-06T11:30:22.420Z,99698.78
2023-04-06T11:33:06.562Z,99704.22
2023-04-06T11:35:51.135Z,99703.78
2023-04-06T11:38:40.880Z,99681.59
2023-04-06T11:41:27.121Z,99669.34
2023-04-06T11:44:11.353Z,99694.78
2023-04-06T11:46:55.798Z,99696.69
2023-04-06T11:49:41.864Z,99692.16
2023-04-06T11:52:31.376Z,99687.44
2023-04-06T11:55:19.094Z,99659.31
2023-04-06T11:58:03.945Z,99615.91
2023-04-06T12:00:48.029Z,99687.97
2023-04-06T12:03:32.605Z,99680.44
2023-04-06T12:06:17.324Z,99657.13
2023-04-06T12:09:01.616Z,99673.53
2023-04-06T12:11:47.651Z,99670.66
2023-04-06T12:14:32.581Z,99659.13
2023-04-06T12:17:16.830Z,99667.28
2023-04-06T12:20:09.516Z,99649.66
2023-04-06T12:22:57.936Z,99641.19
2023-04-06T12:25:42.389Z,99680.47
2023-04-06T12:28:28.133Z,99675.34
2023-04-06T12:31:18.591Z,99644.91
2023-04-06T12:34:04.486Z,99682.47
2023-04-06T12:36:48.896Z,99681.88
2023-04-06T12:39:33.247Z,99681.78
2023-04-06T12:42:18.419Z,99691.75
2023-04-06T12:45:04.522Z,99642.69
2023-04-06T12:47:48.768Z,99689.03
2023-04-06T12:50:32.998Z,99645.63
2023-04-06T12:53:17.439Z,99660.16
2023-04-06T12:56:01.815Z,99616.78
2023-04-06T12:58:46.937Z,99685.19
2023-04-06T13:01:32.759Z,99686.97
2023-04-06T13:04:17.198Z,99654.00
2023-04-06T13:07:01.377Z,99690.00
2023-04-06T13:09:46.477Z,99674.28
2023-04-06T13:12:30.721Z,99641.38
2023-04-06T13:15:15.046Z,99673.09
2023-04-06T13:18:01.094Z,99647.72
2023-04-06T13:20:47.074Z,99652.94
2023-04-06T13:23:31.419Z,99674.41
2023-04-06T13:26:17.948Z,99669.88
2023-04-06T13:29:03.659Z,99663.88
2023-04-06T13:31:47.760Z,99631.69
2023-04-06T13:34:33.188Z,99663.31
2023-04-06T13:37:17.736Z,99651.84
2023-04-06T13:40:01.713Z,99662.66
2023-04-06T13:42:47.408Z,99658.34
2023-04-06T13:45:31.503Z,99658.25
2023-04-06T13:48:15.382Z,99649.78
2023-04-06T13:51:09.640Z,99644.69
2023-04-06T13:53:54.749Z,99652.03
2023-04-06T13:56:38.529Z,99658.25
2023-04-06T13:59:22.462Z,99651.25
2023-04-06T14:02:08.689Z,99646.38
2023-04-06T14:04:52.583Z,99653.19
2023-04-06T14:07:38.400Z,99640.47
2023-04-06T14:10:24.837Z,99635.34
2023-04-06T14:13:08.751Z,99643.00
2023-04-06T14:15:58.421Z,99647.44
2023-04-06T14:18:42.202Z,99647.34
2023-04-06T14:21:26.150Z,99651.56
2023-04-06T14:24:11.792Z,99623.78
2023-04-06T14:26:55.600Z,99645.34
2023-04-06T14:29:40.438Z,99613.34
2023-04-06T14:32:25.736Z,99649.38
2023-04-06T14:35:10.068Z,99639.91
2023-04-06T14:37:53.833Z,99644.44
2023-04-06T14:40:39.335Z,99646.91
2023-04-06T14:43:23.327Z,99636.50
2023-04-06T14:46:09.561Z,99628.84
2023-04-06T14:48:53.390Z,99642.31
2023-04-06T14:51:37.550Z,99645.25
2023-04-06T14:54:21.500Z,99630.91
2023-04-06T14:57:06.774Z,99637.69
2023-04-06T14:59:50.809Z,99638.63
2023-04-06T15:02:35.129Z,99641.69
2023-04-06T15:05:19.240Z,99636.75
2023-04-06T15:08:03.434Z,99610.19
2023-04-06T15:10:47.464Z,99607.19
2023-04-06T15:13:32.948Z,99626.69
2023-04-06T15:16:17.131Z,99646.00
2023-04-06T15:19:01.225Z,99647.25
2023-04-06T15:21:45.291Z,99628.09
2023-04-06T15:24:29.433Z,99635.34
2023-04-06T15:27:13.380Z,99623.03
2023-04-06T15:29:59.582Z,99638.41
2023-04-06T15:32:55.325Z,99626.59
2023-04-06T15:35:43.045Z,99671.63
2023-04-06T15:38:27.171Z,99658.59
2023-04-06T15:41:11.660Z,99664.94
2023-04-06T15:43:56.005Z,99635.78
2023-04-06T15:46:41.346Z,99676.00
2023-04-06T15:49:25.398Z,99656.59
2023-04-06T15:52:09.475Z,99656.81
2023-04-06T15:54:53.429Z,99656.06
2023-04-06T15:57:37.830Z,99697.56
2023-04-06T16:00:22.828Z,99663.09
2023-04-06T16:03:08.450Z,99656.81
2023-04-06T16:06:04.601Z,99677.78
2023-04-06T16:08:52.401Z,99677.50
2023-04-06T16:11:37.096Z,99680.66
2023-04-06T16:14:21.068Z,99679.94
2023-04-06T16:17:05.012Z,99696.59
2023-04-06T16:19:51.065Z,99674.66
2023-04-06T16:22:35.062Z,99676.28
2023-04-06T16:25:19.231Z,99717.47
2023-04-06T16:28:03.387Z,99694.50
2023-04-06T16:30:47.392Z,99688.63
2023-04-06T16:33:31.497Z,99730.66
2023-04-06T16:36:22.776Z,99727.44
2023-04-06T16:39:06.709Z,99735.59
2023-04-06T16:41:50.861Z,99710.38
2023-04-06T16:44:34.902Z,99748.19
2023-04-06T16:47:19.499Z,99719.09
2023-04-06T16:50:05.511Z,99745.06
2023-04-06T16:52:51.726Z,99713.81
2023-04-06T16:55:35.740Z,99740.88
2023-04-06T16:58:19.721Z,99721.50
2023-04-06T17:01:03.677Z,99758.16
2023-04-06T17:03:47.939Z,99734.72
2023-04-06T17:06:32.410Z,99733.03
2023-04-06T17:09:18.072Z,99764.69
2023-04-06T17:12:02.222Z,99729.38
2023-04-06T17:14:46.233Z,99766.28
2023-04-06T17:17:30.401Z,99779.47
2023-04-06T17:20:14.683Z,99757.59
2023-04-06T17:22:58.763Z,99747.81
2023-04-06T17:25:44.257Z,99774.88
2023-04-06T17:28:28.251Z,99784.88
2023-04-06T17:31:13.493Z,99787.13
2023-04-06T17:33:57.534Z,99771.66
2023-04-06T17:36:41.670Z,99782.63
2023-04-06T17:39:25.685Z,99763.78
2023-04-06T17:42:11.480Z,99797.84
2023-04-06T17:44:55.286Z,99788.50
2023-04-06T17:47:39.046Z,99799.66
2023-04-06T17:50:23.033Z,99811.69
2023-04-06T17:53:08.095Z,99804.06
2023-04-06T17:55:52.072Z,99809.06
2023-04-06T17:58:37.342Z,99791.81
2023-04-06T18:01:22.033Z,99815.56
2023-04-06T18:04:06.162Z,99814.41
2023-04-06T18:06:50.783Z,99818.81
2023-04-06T18:09:34.671Z,99818.25
2023-04-06T18:12:18.564Z,99809.84
2023-04-06T18:15:03.936Z,99831.22
2023-04-06T18:17:48.194Z,99823.84
2023-04-06T18:20:32.219Z,99824.63
2023-04-06T18:23:16.085Z,99825.84
2023-04-06T18:26:00.084Z,99833.41
2023-04-06T18:28:44.011Z,99802.75
2023-04-06T18:31:30.723Z,99836.47
2023-04-06T18:34:14.540Z,99844.72
2023-04-06T18:37:00.015Z,99831.94
2023-04-06T18:39:44.639Z,99841.19
2023-04-06T18:42:28.447Z,99840.50
2023-04-06T18:45:13.126Z,99798.69
2023-04-06T18:47:58.318Z,99818.09
2023-04-06T18:50:42.264Z,99840.69
2023-04-06T18:53:26.055Z,99845.06
2023-04-06T18:56:16.792Z,99844.28
2023-04-06T18:59:00.724Z,99844.28
2023-04-06T19:01:46.894Z,99851.19
2023-04-06T19:04:32.602Z,99853.59
2023-04-06T19:07:16.805Z,99857.19
2023-04-06T19:10:00.650Z,99816.19
2023-04-06T19:12:46.151Z,99867.53
2023-04-06T19:15:30.028Z,99870.78
2023-04-06T19:18:13.883Z,99849.03
2023-04-06T19:20:59.037Z,99846.69
2023-04-06T19:23:43.255Z,99873.47
2023-04-06T19:26:30.482Z,99862.75
2023-04-06T19:29:14.422Z,99863.53
2023-04-06T19:31:59.662Z,99866.53
2023-04-06T19:34:43.633Z,99878.59
2023-04-06T19:37:29.017Z,99871.97
2023-04-06T19:40:13.120Z,99865.00
2023-04-06T19:42:56.926Z,99885.00
2023-04-06T19:45:40.727Z,99887.94
2023-04-06T19:48:24.701Z,99892.28
2023-04-06T19:51:09.068Z,99891.13
2023-04-06T19:53:54.266Z,99840.84
2023-04-06T19:56:38.108Z,99893.75
2023-04-06T19:59:21.847Z,99887.16
2023-04-06T20:02:08.315Z,99867.22
2023-04-06T20:04:52.342Z,99891.78
2023-04-06T20:07:38.143Z,99863.41
2023-04-06T20:10:24.365Z,99859.59
2023-04-06T20:13:08.480Z,99848.22
2023-04-06T20:15:52.548Z,99893.44
2023-04-06T20:18:37.248Z,99868.31
2023-04-06T20:21:21.142Z,99839.75
2023-04-06T20:24:05.182Z,99893.31
2023-04-06T20:26:50.778Z,99882.63
2023-04-06T20:29:34.519Z,99895.38
2023-04-06T20:32:20.816Z,99884.16
2023-04-06T20:35:05.045Z,99874.56
2023-04-06T20:37:48.863Z,99894.47
2023-04-06T20:40:32.756Z,99909.06
2023-04-06T20:43:20.649Z,99907.16
2023-04-06T20:46:05.854Z,99909.91
2023-04-06T20:48:49.682Z,99915.13
2023-04-06T20:51:33.791Z,99913.94
2023-04-06T20:54:17.871Z,99913.19
2023-04-06T20:57:01.989Z,99909.91
2023-04-06T20:59:47.245Z,99920.13
2023-04-06T21:02:31.289Z,99916.25
2023-04-06T21:05:15.256Z,99750.63
2023-04-06T21:07:59.031Z,99924.53
2023-04-06T21:10:42.886Z,99936.69
2023-04-06T21:13:26.654Z,99933.88
2023-04-06T21:16:11.878Z,99914.47
2023-04-06T21:18:55.988Z,99933.75
2023-04-06T21:21:39.921Z,99895.91
2023-04-06T21:24:23.986Z,99940.72
2023-04-06T21:27:08.381Z,99853.06
2023-04-06T21:29:52.285Z,99940.13
2023-04-06T21:32:37.864Z,99937.41
2023-04-06T21:35:21.644Z,99931.44
2023-04-06T21:38:05.462Z,99928.16
2023-04-06T21:40:56.087Z,99945.53
2023-04-06T21:43:39.881Z,99935.53
2023-04-06T21:46:23.749Z,99934.84
2023-04-06T21:49:08.943Z,99942.31
2023-04-06T21:51:52.640Z,99950.13
2023-04-06T21:54:36.416Z,99946.59
2023-04-06T21:57:20.200Z,99943.59
2023-04-06T22:00:09.740Z,99915.03
2023-04-06T22:02:59.241Z,99911.72
2023-04-06T22:05:44.400Z,99931.50
2023-04-06T22:08:33.785Z,99942.81
2023-04-06T22:11:18.234Z,99942.44
2023-04-06T22:14:02.387Z,99944.22
2023-04-06T22:16:46.566Z,99952.03
2023-04-06T22:19:30.655Z,99958.22
2023-04-06T22:22:15.977Z,99968.25
2023-04-06T22:25:01.203Z,99960.72
2023-04-06T22:27:46.722Z,99965.41
2023-04-06T22:30:30.683Z,99971.09
2023-04-06T22:33:14.577Z,99944.88
2023-04-06T22:35:58.574Z,99962.63
2023-04-06T22:38:44.501Z,99966.78
2023-04-06T22:41:28.448Z,99971.56
2023-04-06T22:44:12.458Z,99962.91
2023-04-06T22:46:56.203Z,99970.44
2023-04-06T22:49:40.166Z,99963.72
2023-04-06T22:52:23.926Z,99958.88
2023-04-06T22:55:09.846Z,99970.88
2023-04-06T22:57:53.629Z,99960.13
2023-04-06T23:00:37.411Z,99936.22
2023-04-06T23:03:21.287Z,99971.91
2023-04-06T23:06:05.574Z,99969.91
2023-04-06T23:08:49.486Z,99970.22
2023-04-06T23:11:34.715Z,99973.44
2023-04-06T23:14:18.816Z,99975.34
2023-04-06T23:17:02.884Z,99982.97
2023-04-06T23:19:47.096Z,99981.16
2023-04-06T23:22:31.245Z,99981.56
2023-04-06T23:25:14.991Z,99961.53
2023-04-06T23:28:00.174Z,99980.91
2023-04-06T23:30:43.951Z,99982.47
2023-04-06T23:33:29.147Z,99977.31
2023-04-06T23:36:12.916Z,99983.41
2023-04-06T23:38:57.279Z,99975.16
2023-04-06T23:41:41.007Z,99966.72
2023-04-06T23:44:26.324Z,99985.47
2023-04-06T23:47:10.106Z,99987.97
2023-04-06T23:49:53.815Z,99961.03
2023-04-06T23:52:37.504Z,99979.38
2023-04-06T23:55:21.417Z,99965.94
2023-04-06T23:58:05.560Z,99973.91
